sensor_id;sensor_type;location;lat;lon;timestamp;pressure;altitude;pressure_sealevel;temperature;humidity
15678;BME280;7939;50.814;6.368;2023-12-22T00:00:44;98620.47;;;10.48;68.45
15678;BME280;7939;50.814;6.368;2023-12-22T00:03:13;98626.53;;;10.44;68.09
15678;BME280;7939;50.814;6.368;2023-12-22T00:05:40;98629.25;;;10.35;68.18
15678;BME280;7939;50.814;6.368;2023-12-22T00:08:07;98603.84;;;10.27;68.38
15678;BME280;7939;50.814;6.368;2023-12-22T00:10:34;98594.34;;;10.36;68.31
15678;BME280;7939;50.814;6.368;2023-12-22T00:13:00;98595.97;;;10.40;68.15
15678;BME280;7939;50.814;6.368;2023-12-22T00:15:27;98601.22;;;10.32;68.11
15678;BME280;7939;50.814;6.368;2023-12-22T00:17:54;98608.88;;;10.32;67.87
15678;BME280;7939;50.814;6.368;2023-12-22T00:20:22;98635.91;;;10.42;67.42
15678;BME280;7939;50.814;6.368;2023-12-22T00:22:48;98625.88;;;10.33;67.77
15678;BME280;7939;50.814;6.368;2023-12-22T00:25:15;98638.69;;;10.30;68.63
15678;BME280;7939;50.814;6.368;2023-12-22T00:27:42;98614.88;;;10.30;68.03
15678;BME280;7939;50.814;6.368;2023-12-22T00:30:09;98608.78;;;10.37;67.47
15678;BME280;7939;50.814;6.368;2023-12-22T00:32:36;98608.00;;;10.33;67.86
15678;BME280;7939;50.814;6.368;2023-12-22T00:35:04;98601.00;;;10.44;68.29
15678;BME280;7939;50.814;6.368;2023-12-22T00:37:32;98610.25;;;10.50;67.39
15678;BME280;7939;50.814;6.368;2023-12-22T00:39:59;98623.84;;;10.52;67.26
15678;BME280;7939;50.814;6.368;2023-12-22T00:42:26;98608.41;;;10.58;67.08
15678;BME280;7939;50.814;6.368;2023-12-22T00:44:53;98629.47;;;10.68;66.86
15678;BME280;7939;50.814;6.368;2023-12-22T00:47:19;98624.69;;;10.52;67.50
15678;BME280;7939;50.814;6.368;2023-12-22T00:49:46;98633.16;;;10.54;67.65
15678;BME280;7939;50.814;6.368;2023-12-22T00:52:13;98628.94;;;10.52;67.72
15678;BME280;7939;50.814;6.368;2023-12-22T00:54:41;98626.50;;;10.46;67.77
15678;BME280;7939;50.814;6.368;2023-12-22T00:57:07;98641.16;;;10.35;66.72
15678;BME280;7939;50.814;6.368;2023-12-22T00:59:34;98639.53;;;10.32;66.43
15678;BME280;7939;50.814;6.368;2023-12-22T01:02:01;98635.31;;;10.28;67.44
15678;BME280;7939;50.814;6.368;2023-12-22T01:04:27;98629.13;;;10.41;67.27
15678;BME280;7939;50.814;6.368;2023-12-22T01:06:54;98641.00;;;10.45;67.10
15678;BME280;7939;50.814;6.368;2023-12-22T01:09:21;98633.38;;;10.42;66.78
15678;BME280;7939;50.814;6.368;2023-12-22T01:11:49;98634.09;;;10.50;67.30
15678;BME280;7939;50.814;6.368;2023-12-22T01:14:16;98635.06;;;10.43;67.04
15678;BME280;7939;50.814;6.368;2023-12-22T01:16:42;98645.31;;;10.40;67.21
15678;BME280;7939;50.814;6.368;2023-12-22T01:19:09;98637.59;;;10.45;66.95
15678;BME280;7939;50.814;6.368;2023-12-22T01:21:36;98650.16;;;10.56;67.31
15678;BME280;7939;50.814;6.368;2023-12-22T01:24:03;98667.13;;;10.60;67.04
15678;BME280;7939;50.814;6.368;2023-12-22T01:26:30;98662.34;;;10.41;67.02
15678;BME280;7939;50.814;6.368;2023-12-22T01:28:58;98667.44;;;10.41;67.33
15678;BME280;7939;50.814;6.368;2023-12-22T01:31:24;98657.28;;;10.38;67.21
15678;BME280;7939;50.814;6.368;2023-12-22T01:33:51;98646.19;;;10.39;67.13
15678;BME280;7939;50.814;6.368;2023-12-22T01:36:18;98647.94;;;10.37;67.25
15678;BME280;7939;50.814;6.368;2023-12-22T01:38:44;98652.13;;;10.41;66.46
15678;BME280;7939;50.814;6.368;2023-12-22T01:41:11;98658.16;;;10.36;67.06
15678;BME280;7939;50.814;6.368;2023-12-22T01:43:37;98667.44;;;10.41;66.59
15678;BME280;7939;50.814;6.368;2023-12-22T01:46:06;98689.81;;;10.27;67.46
15678;BME280;7939;50.814;6.368;2023-12-22T01:48:34;98665.19;;;10.24;67.25
15678;BME280;7939;50.814;6.368;2023-12-22T01:51:01;98683.91;;;10.23;67.60
15678;BME280;7939;50.814;6.368;2023-12-22T01:53:29;98671.03;;;10.30;66.77
15678;BME280;7939;50.814;6.368;2023-12-22T01:55:58;98659.94;;;10.31;67.21
15678;BME280;7939;50.814;6.368;2023-12-22T01:58:27;98683.78;;;10.33;67.33
15678;BME280;7939;50.814;6.368;2023-12-22T02:00:54;98690.66;;;10.27;67.12
15678;BME280;7939;50.814;6.368;2023-12-22T02:03:22;98694.78;;;10.35;66.80
15678;BME280;7939;50.814;6.368;2023-12-22T02:05:50;98682.19;;;10.24;66.99
15678;BME280;7939;50.814;6.368;2023-12-22T02:08:18;98705.97;;;10.27;66.89
15678;BME280;7939;50.814;6.368;2023-12-22T02:10:44;98705.19;;;10.21;66.87
15678;BME280;7939;50.814;6.368;2023-12-22T02:13:11;98708.59;;;10.24;67.15
15678;BME280;7939;50.814;6.368;2023-12-22T02:15:39;98717.88;;;10.29;67.30
15678;BME280;7939;50.814;6.368;2023-12-22T02:18:08;98727.34;;;10.20;67.73
15678;BME280;7939;50.814;6.368;2023-12-22T02:20:38;98713.75;;;10.17;67.65
15678;BME280;7939;50.814;6.368;2023-12-22T02:23:06;98713.75;;;10.18;68.08
15678;BME280;7939;50.814;6.368;2023-12-22T02:25:32;98722.19;;;10.23;68.21
15678;BME280;7939;50.814;6.368;2023-12-22T02:28:03;98718.03;;;10.16;67.29
15678;BME280;7939;50.814;6.368;2023-12-22T02:30:34;98711.25;;;10.15;67.56
15678;BME280;7939;50.814;6.368;2023-12-22T02:33:05;98706.94;;;10.19;67.54
15678;BME280;7939;50.814;6.368;2023-12-22T02:35:35;98695.84;;;10.23;67.39
15678;BME280;7939;50.814;6.368;2023-12-22T02:38:04;98704.38;;;10.20;67.35
15678;BME280;7939;50.814;6.368;2023-12-22T02:40:33;98706.84;;;10.26;67.29
15678;BME280;7939;50.814;6.368;2023-12-22T02:43:01;98710.31;;;10.21;67.49
15678;BME280;7939;50.814;6.368;2023-12-22T02:45:28;98707.69;;;10.27;67.14
15678;BME280;7939;50.814;6.368;2023-12-22T02:47:55;98695.69;;;10.31;67.28
15678;BME280;7939;50.814;6.368;2023-12-22T02:50:22;98697.38;;;10.33;67.41
15678;BME280;7939;50.814;6.368;2023-12-22T02:52:49;98695.69;;;10.31;67.16
15678;BME280;7939;50.814;6.368;2023-12-22T02:55:15;98689.63;;;10.39;67.29
15678;BME280;7939;50.814;6.368;2023-12-22T02:57:43;98700.78;;;10.34;67.38
15678;BME280;7939;50.814;6.368;2023-12-22T03:00:11;98705.16;;;10.25;66.90
15678;BME280;7939;50.814;6.368;2023-12-22T03:02:38;98684.47;;;10.41;67.12
15678;BME280;7939;50.814;6.368;2023-12-22T03:05:05;98677.03;;;10.29;66.98
15678;BME280;7939;50.814;6.368;2023-12-22T03:07:32;98682.19;;;10.25;67.16
15678;BME280;7939;50.814;6.368;2023-12-22T03:09:58;98675.16;;;10.37;67.28
15678;BME280;7939;50.814;6.368;2023-12-22T03:12:25;98682.19;;;10.25;67.21
15678;BME280;7939;50.814;6.368;2023-12-22T03:14:53;98691.59;;;10.20;67.15
15678;BME280;7939;50.814;6.368;2023-12-22T03:17:20;98706.03;;;10.21;67.21
15678;BME280;7939;50.814;6.368;2023-12-22T03:19:46;98685.63;;;10.21;67.36
15678;BME280;7939;50.814;6.368;2023-12-22T03:22:13;98688.22;;;10.20;67.59
15678;BME280;7939;50.814;6.368;2023-12-22T03:24:40;98683.91;;;10.23;66.99
15678;BME280;7939;50.814;6.368;2023-12-22T03:27:06;98683.13;;;10.18;67.27
15678;BME280;7939;50.814;6.368;2023-12-22T03:29:33;98698.44;;;10.18;67.50
15678;BME280;7939;50.814;6.368;2023-12-22T03:32:01;98700.94;;;10.24;67.10
15678;BME280;7939;50.814;6.368;2023-12-22T03:34:28;98712.84;;;10.25;67.04
15678;BME280;7939;50.814;6.368;2023-12-22T03:36:54;98718.81;;;10.24;67.36
15678;BME280;7939;50.814;6.368;2023-12-22T03:39:21;98723.91;;;10.21;67.04
15678;BME280;7939;50.814;6.368;2023-12-22T03:41:48;98732.31;;;10.30;67.18
15678;BME280;7939;50.814;6.368;2023-12-22T03:44:14;98750.19;;;10.30;67.02
15678;BME280;7939;50.814;6.368;2023-12-22T03:46:41;98725.47;;;10.33;67.69
15678;BME280;7939;50.814;6.368;2023-12-22T03:49:09;98724.47;;;10.43;66.78
15678;BME280;7939;50.814;6.368;2023-12-22T03:51:36;98726.34;;;10.31;67.07
15678;BME280;7939;50.814;6.368;2023-12-22T03:54:03;98728.97;;;10.27;67.56
15678;BME280;7939;50.814;6.368;2023-12-22T03:56:29;98717.13;;;10.20;67.68
15678;BME280;7939;50.814;6.368;2023-12-22T03:58:56;98704.22;;;10.31;67.70
15678;BME280;7939;50.814;6.368;2023-12-22T04:01:22;98699.09;;;10.33;67.27
15678;BME280;7939;50.814;6.368;2023-12-22T04:03:48;98699.81;;;10.41;67.20
15678;BME280;7939;50.814;6.368;2023-12-22T04:06:16;98701.34;;;10.49;67.71
15678;BME280;7939;50.814;6.368;2023-12-22T04:08:43;98708.38;;;10.38;67.36
15678;BME280;7939;50.814;6.368;2023-12-22T04:11:09;98693.88;;;10.39;67.35
15678;BME280;7939;50.814;6.368;2023-12-22T04:13:36;98700.44;;;10.53;67.84
15678;BME280;7939;50.814;6.368;2023-12-22T04:16:03;98720.09;;;10.50;67.62
15678;BME280;7939;50.814;6.368;2023-12-22T04:18:30;98715.91;;;10.46;67.83
15678;BME280;7939;50.814;6.368;2023-12-22T04:20:57;98723.53;;;10.47;67.52
15678;BME280;7939;50.814;6.368;2023-12-22T04:23:25;98729.53;;;10.45;67.87
15678;BME280;7939;50.814;6.368;2023-12-22T04:25:52;98721.22;;;10.32;68.41
15678;BME280;7939;50.814;6.368;2023-12-22T04:28:18;98743.44;;;10.27;68.64
15678;BME280;7939;50.814;6.368;2023-12-22T04:30:45;98736.63;;;10.27;68.46
15678;BME280;7939;50.814;6.368;2023-12-22T04:33:12;98736.69;;;10.23;69.13
15678;BME280;7939;50.814;6.368;2023-12-22T04:35:39;98724.75;;;10.22;68.98
15678;BME280;7939;50.814;6.368;2023-12-22T04:38:05;98734.91;;;10.28;68.95
15678;BME280;7939;50.814;6.368;2023-12-22T04:40:33;98719.66;;;10.22;69.06
15678;BME280;7939;50.814;6.368;2023-12-22T04:43:01;98719.66;;;10.25;69.46
15678;BME280;7939;50.814;6.368;2023-12-22T04:45:27;98726.56;;;10.15;69.85
15678;BME280;7939;50.814;6.368;2023-12-22T04:47:54;98723.94;;;10.20;69.36
15678;BME280;7939;50.814;6.368;2023-12-22T04:50:20;98725.63;;;10.21;69.08
15678;BME280;7939;50.814;6.368;2023-12-22T04:52:47;98748.66;;;10.16;68.68
15678;BME280;7939;50.814;6.368;2023-12-22T04:55:14;98740.91;;;10.24;68.90
15678;BME280;7939;50.814;6.368;2023-12-22T04:57:42;98741.72;;;10.27;68.57
15678;BME280;7939;50.814;6.368;2023-12-22T05:00:10;98739.19;;;10.26;68.83
15678;BME280;7939;50.814;6.368;2023-12-22T05:02:36;98755.28;;;10.33;68.67
15678;BME280;7939;50.814;6.368;2023-12-22T05:05:03;98760.38;;;10.33;68.90
15678;BME280;7939;50.814;6.368;2023-12-22T05:07:30;98746.16;;;10.15;68.83
15678;BME280;7939;50.814;6.368;2023-12-22T05:09:57;98765.75;;;10.13;68.60
15678;BME280;7939;50.814;6.368;2023-12-22T05:12:23;98763.13;;;10.19;68.44
15678;BME280;7939;50.814;6.368;2023-12-22T05:14:51;98767.28;;;10.26;68.76
15678;BME280;7939;50.814;6.368;2023-12-22T05:17:18;98762.28;;;10.17;68.45
15678;BME280;7939;50.814;6.368;2023-12-22T05:19:45;98768.16;;;10.22;68.08
15678;BME280;7939;50.814;6.368;2023-12-22T05:22:11;98763.13;;;10.19;67.66
15678;BME280;7939;50.814;6.368;2023-12-22T05:24:38;98765.56;;;10.26;67.16
15678;BME280;7939;50.814;6.368;2023-12-22T05:27:04;98783.53;;;10.17;67.58
15678;BME280;7939;50.814;6.368;2023-12-22T05:29:31;98776.66;;;10.22;66.97
15678;BME280;7939;50.814;6.368;2023-12-22T05:31:59;98783.41;;;10.28;67.33
15678;BME280;7939;50.814;6.368;2023-12-22T05:34:26;98767.16;;;10.34;67.72
15678;BME280;7939;50.814;6.368;2023-12-22T05:36:53;98785.78;;;10.40;67.27
15678;BME280;7939;50.814;6.368;2023-12-22T05:39:20;98777.31;;;10.37;66.95
15678;BME280;7939;50.814;6.368;2023-12-22T05:41:46;98767.19;;;10.32;67.18
15678;BME280;7939;50.814;6.368;2023-12-22T05:44:13;98777.34;;;10.35;67.08
15678;BME280;7939;50.814;6.368;2023-12-22T05:46:39;98781.53;;;10.41;67.46
15678;BME280;7939;50.814;6.368;2023-12-22T05:49:07;98778.97;;;10.41;67.14
15678;BME280;7939;50.814;6.368;2023-12-22T05:51:38;98791.06;;;10.31;67.37
15678;BME280;7939;50.814;6.368;2023-12-22T05:54:05;98778.25;;;10.33;68.15
15678;BME280;7939;50.814;6.368;2023-12-22T05:56:32;98786.72;;;10.35;68.06
15678;BME280;7939;50.814;6.368;2023-12-22T05:58:59;98771.56;;;10.22;68.73
15678;BME280;7939;50.814;6.368;2023-12-22T06:01:26;98766.41;;;10.27;69.05
15678;BME280;7939;50.814;6.368;2023-12-22T06:03:52;98755.94;;;10.44;68.54
15678;BME280;7939;50.814;6.368;2023-12-22T06:06:21;98791.69;;;10.45;68.57
15678;BME280;7939;50.814;6.368;2023-12-22T06:08:48;98783.31;;;10.37;68.67
15678;BME280;7939;50.814;6.368;2023-12-22T06:11:14;98776.47;;;10.38;69.33
15678;BME280;7939;50.814;6.368;2023-12-22T06:13:41;98773.97;;;10.33;69.24
15678;BME280;7939;50.814;6.368;2023-12-22T06:16:11;98777.22;;;10.44;68.94
15678;BME280;7939;50.814;6.368;2023-12-22T06:18:38;98767.03;;;10.41;69.01
15678;BME280;7939;50.814;6.368;2023-12-22T06:21:05;98755.94;;;10.42;69.35
15678;BME280;7939;50.814;6.368;2023-12-22T06:23:33;98758.50;;;10.42;69.17
15678;BME280;7939;50.814;6.368;2023-12-22T06:25:59;98753.44;;;10.41;69.26
15678;BME280;7939;50.814;6.368;2023-12-22T06:28:27;98751.56;;;10.52;69.33
15678;BME280;7939;50.814;6.368;2023-12-22T06:30:54;98754.09;;;10.52;69.53
15678;BME280;7939;50.814;6.368;2023-12-22T06:33:20;98760.00;;;10.56;69.01
15678;BME280;7939;50.814;6.368;2023-12-22T06:35:47;98745.81;;;10.39;69.76
15678;BME280;7939;50.814;6.368;2023-12-22T06:38:18;98739.69;;;10.48;69.20
15678;BME280;7939;50.814;6.368;2023-12-22T06:40:46;98743.97;;;10.47;69.40
15678;BME280;7939;50.814;6.368;2023-12-22T06:43:13;98727.75;;;10.48;69.26
15678;BME280;7939;50.814;6.368;2023-12-22T06:45:40;98737.34;;;10.37;69.68
15678;BME280;7939;50.814;6.368;2023-12-22T06:48:07;98780.66;;;10.42;69.81
15678;BME280;7939;50.814;6.368;2023-12-22T06:50:34;98773.97;;;10.33;69.63
15678;BME280;7939;50.814;6.368;2023-12-22T06:53:02;98784.06;;;10.41;69.45
15678;BME280;7939;50.814;6.368;2023-12-22T06:55:29;98790.09;;;10.37;69.84
15678;BME280;7939;50.814;6.368;2023-12-22T06:57:57;98775.53;;;10.42;69.91
15678;BME280;7939;50.814;6.368;2023-12-22T07:00:23;98793.53;;;10.34;70.22
15678;BME280;7939;50.814;6.368;2023-12-22T07:02:50;98795.09;;;10.43;69.42
15678;BME280;7939;50.814;6.368;2023-12-22T07:05:30;98790.88;;;10.42;69.69
15678;BME280;7939;50.814;6.368;2023-12-22T07:07:56;98789.91;;;10.50;69.58
15678;BME280;7939;50.814;6.368;2023-12-22T07:10:22;98795.91;;;10.46;69.43
15678;BME280;7939;50.814;6.368;2023-12-22T07:12:49;98800.97;;;10.51;69.94
15678;BME280;7939;50.814;6.368;2023-12-22T07:15:17;98794.06;;;10.54;69.62
15678;BME280;7939;50.814;6.368;2023-12-22T07:17:44;98791.31;;;10.67;68.72
15678;BME280;7939;50.814;6.368;2023-12-22T07:20:11;98791.44;;;10.59;69.00
15678;BME280;7939;50.814;6.368;2023-12-22T07:22:37;98808.50;;;10.59;68.93
15678;BME280;7939;50.814;6.368;2023-12-22T07:25:05;98801.72;;;10.54;69.48
15678;BME280;7939;50.814;6.368;2023-12-22T07:27:33;98805.88;;;10.62;69.51
15678;BME280;7939;50.814;6.368;2023-12-22T07:30:00;98815.41;;;10.52;69.06
15678;BME280;7939;50.814;6.368;2023-12-22T07:32:28;98806.84;;;10.56;69.73
15678;BME280;7939;50.814;6.368;2023-12-22T07:34:55;98801.72;;;10.54;69.59
15678;BME280;7939;50.814;6.368;2023-12-22T07:37:21;98805.09;;;10.58;69.53
15678;BME280;7939;50.814;6.368;2023-12-22T07:39:48;98797.38;;;10.61;69.33
15678;BME280;7939;50.814;6.368;2023-12-22T07:42:15;98794.72;;;10.67;69.49
15678;BME280;7939;50.814;6.368;2023-12-22T07:44:41;98792.34;;;10.57;69.71
15678;BME280;7939;50.814;6.368;2023-12-22T07:47:08;98793.88;;;10.67;69.25
15678;BME280;7939;50.814;6.368;2023-12-22T07:49:37;98800.78;;;10.63;69.43
15678;BME280;7939;50.814;6.368;2023-12-22T07:52:05;98782.19;;;10.53;69.24
15678;BME280;7939;50.814;6.368;2023-12-22T07:54:31;98801.81;;;10.48;69.48
15678;BME280;7939;50.814;6.368;2023-12-22T07:56:58;98800.97;;;10.51;69.25
15678;BME280;7939;50.814;6.368;2023-12-22T07:59:25;98806.13;;;10.46;69.55
15678;BME280;7939;50.814;6.368;2023-12-22T08:01:51;98821.31;;;10.54;69.62
15678;BME280;7939;50.814;6.368;2023-12-22T08:04:18;98812.91;;;10.47;69.67
15678;BME280;7939;50.814;6.368;2023-12-22T08:06:46;98823.06;;;10.52;69.69
15678;BME280;7939;50.814;6.368;2023-12-22T08:09:13;98827.28;;;10.54;69.61
15678;BME280;7939;50.814;6.368;2023-12-22T08:11:40;98814.50;;;10.56;69.95
15678;BME280;7939;50.814;6.368;2023-12-22T08:14:06;98811.84;;;10.61;69.48
15678;BME280;7939;50.814;6.368;2023-12-22T08:16:33;98817.03;;;10.58;69.65
15678;BME280;7939;50.814;6.368;2023-12-22T08:18:59;98812.03;;;10.50;69.94
15678;BME280;7939;50.814;6.368;2023-12-22T08:21:26;98807.66;;;10.58;70.25
15678;BME280;7939;50.814;6.368;2023-12-22T08:23:54;98807.66;;;10.58;70.07
15678;BME280;7939;50.814;6.368;2023-12-22T08:26:21;98806.06;;;10.51;70.61
15678;BME280;7939;50.814;6.368;2023-12-22T08:28:47;98811.94;;;10.54;70.46
15678;BME280;7939;50.814;6.368;2023-12-22T08:31:14;98805.03;;;10.61;70.37
15678;BME280;7939;50.814;6.368;2023-12-22T08:33:41;98801.78;;;10.53;70.43
15678;BME280;7939;50.814;6.368;2023-12-22T08:36:09;98801.69;;;10.58;70.11
15678;BME280;7939;50.814;6.368;2023-12-22T08:38:36;98803.34;;;10.60;69.82
15678;BME280;7939;50.814;6.368;2023-12-22T08:41:07;98793.03;;;10.66;69.95
15678;BME280;7939;50.814;6.368;2023-12-22T08:43:33;98793.75;;;10.74;69.91
15678;BME280;7939;50.814;6.368;2023-12-22T08:46:00;98805.75;;;10.71;69.46
15678;BME280;7939;50.814;6.368;2023-12-22T08:48:27;98803.22;;;10.69;70.37
15678;BME280;7939;50.814;6.368;2023-12-22T08:50:54;98809.19;;;10.70;69.98
15678;BME280;7939;50.814;6.368;2023-12-22T08:53:20;98803.97;;;10.76;69.53
15678;BME280;7939;50.814;6.368;2023-12-22T08:55:47;98793.69;;;10.79;69.40
15678;BME280;7939;50.814;6.368;2023-12-22T08:58:15;98801.31;;;10.82;69.40
15678;BME280;7939;50.814;6.368;2023-12-22T09:00:42;98794.41;;;10.86;69.72
15678;BME280;7939;50.814;6.368;2023-12-22T09:03:08;98806.53;;;10.76;69.61
15678;BME280;7939;50.814;6.368;2023-12-22T09:05:35;98792.06;;;10.73;69.69
15678;BME280;7939;50.814;6.368;2023-12-22T09:08:02;98791.31;;;10.67;69.67
15678;BME280;7939;50.814;6.368;2023-12-22T09:10:29;98792.91;;;10.74;70.25
15678;BME280;7939;50.814;6.368;2023-12-22T09:12:56;98789.47;;;10.76;69.97
15678;BME280;7939;50.814;6.368;2023-12-22T09:15:24;98781.78;;;10.78;69.81
15678;BME280;7939;50.814;6.368;2023-12-22T09:17:52;98780.06;;;10.78;69.95
15678;BME280;7939;50.814;6.368;2023-12-22T09:20:21;98789.38;;;10.83;70.11
15678;BME280;7939;50.814;6.368;2023-12-22T09:22:48;98791.09;;;10.80;70.04
15678;BME280;7939;50.814;6.368;2023-12-22T09:25:15;98797.91;;;10.82;70.64
15678;BME280;7939;50.814;6.368;2023-12-22T09:27:41;98791.78;;;10.90;70.39
15678;BME280;7939;50.814;6.368;2023-12-22T09:30:09;98790.91;;;10.91;70.41
15678;BME280;7939;50.814;6.368;2023-12-22T09:32:37;98803.84;;;10.84;69.89
15678;BME280;7939;50.814;6.368;2023-12-22T09:35:04;98791.09;;;10.82;70.38
15678;BME280;7939;50.814;6.368;2023-12-22T09:37:31;98779.13;;;10.84;70.83
15678;BME280;7939;50.814;6.368;2023-12-22T09:39:58;98779.22;;;10.78;70.80
15678;BME280;7939;50.814;6.368;2023-12-22T09:42:25;98770.56;;;10.85;71.40
15678;BME280;7939;50.814;6.368;2023-12-22T09:44:53;98766.50;;;10.75;71.25
15678;BME280;7939;50.814;6.368;2023-12-22T09:47:22;98757.72;;;10.90;71.12
15678;BME280;7939;50.814;6.368;2023-12-22T09:49:52;98759.38;;;10.94;70.20
15678;BME280;7939;50.814;6.368;2023-12-22T09:52:19;98753.38;;;10.95;70.18
15678;BME280;7939;50.814;6.368;2023-12-22T09:54:47;98739.75;;;10.94;70.55
15678;BME280;7939;50.814;6.368;2023-12-22T09:57:15;98737.09;;;10.99;70.19
15678;BME280;7939;50.814;6.368;2023-12-22T09:59:42;98737.88;;;11.02;70.77
15678;BME280;7939;50.814;6.368;2023-12-22T10:02:09;98738.84;;;10.97;71.10
15678;BME280;7939;50.814;6.368;2023-12-22T10:04:36;98732.88;;;10.96;71.05
15678;BME280;7939;50.814;6.368;2023-12-22T10:07:06;98724.31;;;11.00;71.34
15678;BME280;7939;50.814;6.368;2023-12-22T10:09:34;98731.97;;;10.99;71.40
15678;BME280;7939;50.814;6.368;2023-12-22T10:12:03;98723.53;;;10.95;71.49
15678;BME280;7939;50.814;6.368;2023-12-22T10:14:31;98726.88;;;11.00;70.84
15678;BME280;7939;50.814;6.368;2023-12-22T10:17:01;98729.41;;;11.00;71.12
15678;BME280;7939;50.814;6.368;2023-12-22T10:19:27;98739.59;;;11.02;71.65
15678;BME280;7939;50.814;6.368;2023-12-22T10:21:54;98739.69;;;10.97;71.74
15678;BME280;7939;50.814;6.368;2023-12-22T10:24:38;98726.72;;;11.08;70.96
15678;BME280;7939;50.814;6.368;2023-12-22T10:27:07;98726.75;;;11.05;71.27
15678;BME280;7939;50.814;6.368;2023-12-22T10:29:34;98729.50;;;10.96;71.42
15678;BME280;7939;50.814;6.368;2023-12-22T10:32:02;98729.53;;;10.93;72.56
15678;BME280;7939;50.814;6.368;2023-12-22T10:34:29;98737.94;;;11.01;72.49
15678;BME280;7939;50.814;6.368;2023-12-22T10:36:55;98714.88;;;11.02;72.20
15678;BME280;7939;50.814;6.368;2023-12-22T10:39:22;98721.78;;;10.97;73.03
15678;BME280;7939;50.814;6.368;2023-12-22T10:41:50;98714.00;;;11.03;72.33
15678;BME280;7939;50.814;6.368;2023-12-22T10:44:18;98713.09;;;11.06;72.14
15678;BME280;7939;50.814;6.368;2023-12-22T10:46:46;98714.78;;;11.08;72.51
15678;BME280;7939;50.814;6.368;2023-12-22T10:49:13;98709.69;;;11.05;72.34
15678;BME280;7939;50.814;6.368;2023-12-22T10:51:41;98715.59;;;11.09;72.78
15678;BME280;7939;50.814;6.368;2023-12-22T10:54:08;98713.09;;;11.07;72.83
15678;BME280;7939;50.814;6.368;2023-12-22T10:56:35;98721.53;;;11.11;72.24
15678;BME280;7939;50.814;6.368;2023-12-22T10:59:03;98713.06;;;11.09;72.90
15678;BME280;7939;50.814;6.368;2023-12-22T11:01:30;98712.25;;;11.07;73.13
15678;BME280;7939;50.814;6.368;2023-12-22T11:04:01;98705.31;;;11.14;72.71
15678;BME280;7939;50.814;6.368;2023-12-22T11:06:29;98689.97;;;11.14;72.67
15678;BME280;7939;50.814;6.368;2023-12-22T11:08:57;98702.75;;;11.14;72.62
15678;BME280;7939;50.814;6.368;2023-12-22T11:11:27;98701.88;;;11.15;73.01
15678;BME280;7939;50.814;6.368;2023-12-22T11:13:56;98694.94;;;11.20;73.12
15678;BME280;7939;50.814;6.368;2023-12-22T11:16:24;98699.28;;;11.16;73.75
15678;BME280;7939;50.814;6.368;2023-12-22T11:18:54;98709.41;;;11.21;73.54
15678;BME280;7939;50.814;6.368;2023-12-22T11:21:22;98694.81;;;11.26;72.26
15678;BME280;7939;50.814;6.368;2023-12-22T11:23:49;98698.22;;;11.25;72.71
15678;BME280;7939;50.814;6.368;2023-12-22T11:26:17;98734.03;;;11.26;73.37
15678;BME280;7939;50.814;6.368;2023-12-22T11:28:46;98718.72;;;11.23;73.66
15678;BME280;7939;50.814;6.368;2023-12-22T11:31:13;98729.72;;;11.28;73.62
15678;BME280;7939;50.814;6.368;2023-12-22T11:33:44;98723.81;;;11.25;73.33
15678;BME280;7939;50.814;6.368;2023-12-22T11:36:11;98731.50;;;11.23;74.12
15678;BME280;7939;50.814;6.368;2023-12-22T11:38:39;98729.69;;;11.30;73.34
15678;BME280;7939;50.814;6.368;2023-12-22T11:41:10;98737.38;;;11.28;73.74
15678;BME280;7939;50.814;6.368;2023-12-22T11:43:38;98728.06;;;11.26;74.03
15678;BME280;7939;50.814;6.368;2023-12-22T11:46:07;98720.41;;;11.24;73.68
15678;BME280;7939;50.814;6.368;2023-12-22T11:48:35;98732.28;;;11.28;74.02
15678;BME280;7939;50.814;6.368;2023-12-22T11:51:12;98722.03;;;11.28;74.49
15678;BME280;7939;50.814;6.368;2023-12-22T11:53:39;98712.63;;;11.30;73.92
15678;BME280;7939;50.814;6.368;2023-12-22T11:56:07;98714.38;;;11.28;74.41
15678;BME280;7939;50.814;6.368;2023-12-22T11:58:39;98719.44;;;11.30;73.54
15678;BME280;7939;50.814;6.368;2023-12-22T12:01:07;98716.81;;;11.34;73.67
15678;BME280;7939;50.814;6.368;2023-12-22T12:03:37;98721.09;;;11.34;73.85
15678;BME280;7939;50.814;6.368;2023-12-22T12:06:14;98721.91;;;11.34;74.49
15678;BME280;7939;50.814;6.368;2023-12-22T12:08:42;98718.44;;;11.37;73.92
15678;BME280;7939;50.814;6.368;2023-12-22T12:11:09;98714.25;;;11.34;73.52
15678;BME280;7939;50.814;6.368;2023-12-22T12:13:44;98706.50;;;11.39;73.81
15678;BME280;7939;50.814;6.368;2023-12-22T12:16:11;98706.44;;;11.41;73.63
15678;BME280;7939;50.814;6.368;2023-12-22T12:18:39;98698.75;;;11.42;73.07
15678;BME280;7939;50.814;6.368;2023-12-22T12:21:06;98705.56;;;11.42;73.36
15678;BME280;7939;50.814;6.368;2023-12-22T12:23:35;98692.69;;;11.46;73.36
15678;BME280;7939;50.814;6.368;2023-12-22T12:26:02;98695.25;;;11.46;73.27
15678;BME280;7939;50.814;6.368;2023-12-22T12:28:30;98698.66;;;11.47;73.00
15678;BME280;7939;50.814;6.368;2023-12-22T12:30:58;98685.84;;;11.47;72.88
15678;BME280;7939;50.814;6.368;2023-12-22T12:33:26;98695.16;;;11.49;73.68
15678;BME280;7939;50.814;6.368;2023-12-22T12:35:54;98682.34;;;11.52;73.53
15678;BME280;7939;50.814;6.368;2023-12-22T12:38:36;98674.63;;;11.54;73.03
15678;BME280;7939;50.814;6.368;2023-12-22T12:41:09;98679.69;;;11.55;72.67
15678;BME280;7939;50.814;6.368;2023-12-22T12:43:41;98681.44;;;11.53;73.68
15678;BME280;7939;50.814;6.368;2023-12-22T12:46:08;98668.63;;;11.55;72.71
15678;BME280;7939;50.814;6.368;2023-12-22T12:48:35;98683.94;;;11.56;73.00
15678;BME280;7939;50.814;6.368;2023-12-22T12:51:03;98678.00;;;11.54;72.81
15678;BME280;7939;50.814;6.368;2023-12-22T12:53:31;98681.41;;;11.55;73.23
15678;BME280;7939;50.814;6.368;2023-12-22T12:55:58;98692.47;;;11.57;73.61
15678;BME280;7939;50.814;6.368;2023-12-22T12:58:28;98681.41;;;11.55;73.09
15678;BME280;7939;50.814;6.368;2023-12-22T13:01:04;98682.19;;;11.58;72.58
15678;BME280;7939;50.814;6.368;2023-12-22T13:03:31;98682.28;;;11.54;74.03
15678;BME280;7939;50.814;6.368;2023-12-22T13:06:06;98685.72;;;11.53;73.52
15678;BME280;7939;50.814;6.368;2023-12-22T13:08:33;98696.00;;;11.51;73.31
15678;BME280;7939;50.814;6.368;2023-12-22T13:11:00;98689.91;;;11.57;74.04